This is the latest recevied weather packets stored in our database for station/object WX3I. If no packets are shown the sender has not sent any weather packets the latest 10 day(s).
| Time | Temp. | Humidity | Pressure | Rain* | Wind** | Luminosity | Snow |
|---|---|---|---|---|---|---|---|
| 1777613405 | 8.89° C | 80% | 1014.1 hPa | 0 mm | - | 0 W/m² | - |
| 1777608904 | 10° C | 79% | 1013.7 hPa | 0 mm | - | 0 W/m² | - |
| 1777607104 | 10° C | 78% | 1013.5 hPa | 0 mm | - | 0 W/m² | - |
| 1777606204 | 10° C | 78% | 1013.5 hPa | 0 mm | - | 0 W/m² | - |
| 1777603805 | 10.56° C | 76% | 1013.4 hPa | 0 mm | - | 0 W/m² | - |
| 1777603504 | 10.56° C | 76% | 1013.4 hPa | 0 mm | - | 0 W/m² | - |
| 1777601104 | 11.11° C | 74% | 1013.3 hPa | 0 mm | - | 0 W/m² | - |
| 1777600804 | 11.11° C | 74% | 1013.2 hPa | 0 mm | - | 0 W/m² | - |
| 1777599604 | 11.11° C | 73% | 1013.2 hPa | 0 mm | - | 0 W/m² | - |
| 1777599004 | 11.11° C | 73% | 1013 hPa | 0 mm | - | 0 W/m² | - |
| 1777595704 | 11.67° C | 75% | 1011.9 hPa | 0 mm | - | 0 W/m² | - |
| 1777592704 | 11.67° C | 76% | 1011 hPa | 0 mm | - | 27 W/m² | - |
| 1777590904 | 12.22° C | 76% | 1010.7 hPa | 0 mm | - | 104 W/m² | - |
| 1777590305 | 12.78° C | 75% | 1010.7 hPa | 0 mm | - | 153 W/m² | - |
| 1777589704 | 12.78° C | 73% | 1010.6 hPa | 0 mm | - | 234 W/m² | - |
| 1777589104 | 13.33° C | 70% | 1010.4 hPa | 0 mm | - | 189 W/m² | - |
| 1777584004 | 16.11° C | 53% | 1009.4 hPa | 0 mm | - | 595 W/m² | - |
| 1777582804 | 16.67° C | 53% | 1009 hPa | 0 mm | - | 674 W/m² | - |
| 1777582504 | 16.67° C | 53% | 1009.1 hPa | 0 mm | - | 693 W/m² | - |
| 1777580105 | 15.56° C | 60% | 1008.9 hPa | 0 mm | - | 843 W/m² | - |
| 1777579804 | 15.56° C | 62% | 1009 hPa | 0 mm | - | 860 W/m² | - |
| 1777578605 | 16.67° C | 57% | 1008.8 hPa | 0 mm | - | 928 W/m² | - |
| 1777578005 | 16.67° C | 56% | 1008.9 hPa | 0 mm | - | 959 W/m² | - |
| 1777575304 | 15.56° C | 62% | 1008.8 hPa | 0 mm | - | 1078 W/m² | - |
| 1777574404 | 15.56° C | 62% | 1009.2 hPa | 0 mm | - | 1108 W/m² | - |
* Rain latest hour (hover to see other rain measurements)
** Current wind speed in m/s (hover to see current wind gust speed)